Time;durP1;ratioP1;P1;durP2;ratioP2;P2;SDS_P1;SDS_P2;PMS_P1;PMS_P2;Temp;Humidity;BMP_temperature;BMP_pressure;BME280_temperature;BME280_humidity;BME280_pressure;Samples;Min_cycle;Max_cycle;Signal;HPM_P1;HPM_P2
2021/10/08 00:00:49;;;;;;;0.50;0.50;;;;;;;;;;5087421;28;20511;-54
2021/10/08 00:03:16;;;;;;;0.85;0.68;;;;;;;;;;5087926;28;20449;-52
2021/10/08 00:05:42;;;;;;;0.60;0.60;;;;;;;;;;5086532;28;20066;-54
2021/10/08 00:08:08;;;;;;;1.00;0.60;;;;;;;;;;5087639;28;20080;-54
2021/10/08 00:10:35;;;;;;;0.60;0.50;;;;;;;;;;5085906;28;20165;-53
2021/10/08 00:13:01;;;;;;;0.95;0.70;;;;;;;;;;5086553;28;20510;-55
2021/10/08 00:15:27;;;;;;;0.57;0.57;;;;;;;;;;5087955;28;20024;-55
2021/10/08 00:17:53;;;;;;;0.68;0.52;;;;;;;;;;5087371;28;20095;-55
2021/10/08 00:20:19;;;;;;;0.80;0.52;;;;;;;;;;5086889;28;20094;-57
2021/10/08 00:22:46;;;;;;;1.15;0.60;;;;;;;;;;5069722;28;20402;-54
2021/10/08 00:25:13;;;;;;;0.60;0.60;;;;;;;;;;5087711;28;20036;-53
2021/10/08 00:27:39;;;;;;;0.60;0.60;;;;;;;;;;5087502;28;20021;-52
2021/10/08 00:30:05;;;;;;;0.98;0.77;;;;;;;;;;5086882;28;20781;-52
2021/10/08 00:32:31;;;;;;;1.15;0.50;;;;;;;;;;5067507;28;20125;-53
2021/10/08 00:34:57;;;;;;;0.63;0.60;;;;;;;;;;5067420;28;20024;-53
2021/10/08 00:37:23;;;;;;;0.70;0.70;;;;;;;;;;5067094;28;20427;-53
2021/10/08 00:39:49;;;;;;;0.50;0.50;;;;;;;;;;5066829;28;20107;-53
2021/10/08 00:42:20;;;;;;;0.60;0.60;;;;;;;;;;5082957;28;20036;-53
2021/10/08 00:44:46;;;;;;;0.60;0.60;;;;;;;;;;5086931;28;20028;-53
2021/10/08 00:47:13;;;;;;;0.60;0.60;;;;;;;;;;5086227;28;20031;-53
2021/10/08 00:49:39;;;;;;;0.82;0.70;;;;;;;;;;5086863;28;20115;-52
2021/10/08 00:52:06;;;;;;;0.50;0.50;;;;;;;;;;5086826;28;20502;-50
2021/10/08 00:54:32;;;;;;;0.70;0.70;;;;;;;;;;5087107;28;20051;-54
2021/10/08 00:56:58;;;;;;;0.60;0.60;;;;;;;;;;5086073;28;20020;-53
2021/10/08 00:59:32;;;;;;;0.75;0.60;;;;;;;;;;5086844;28;20039;-53
2021/10/08 01:01:58;;;;;;;0.50;0.50;;;;;;;;;;5087067;28;20039;-52
2021/10/08 01:04:25;;;;;;;0.68;0.68;;;;;;;;;;5087526;28;20097;-53
2021/10/08 01:06:51;;;;;;;1.02;0.70;;;;;;;;;;5073639;28;20024;-55
2021/10/08 01:09:17;;;;;;;0.68;0.52;;;;;;;;;;5066588;28;20692;-54
2021/10/08 01:11:44;;;;;;;0.63;0.63;;;;;;;;;;5066471;28;20457;-53
2021/10/08 01:14:11;;;;;;;0.50;0.50;;;;;;;;;;5070131;28;20074;-54
2021/10/08 01:16:37;;;;;;;0.73;0.70;;;;;;;;;;5085845;28;20521;-53
2021/10/08 01:19:03;;;;;;;1.33;0.63;;;;;;;;;;5086366;28;20046;-53
2021/10/08 01:21:30;;;;;;;0.90;0.70;;;;;;;;;;5073434;28;20503;-52
2021/10/08 01:23:56;;;;;;;0.82;0.70;;;;;;;;;;5066790;28;20071;-53
2021/10/08 01:26:22;;;;;;;0.47;0.47;;;;;;;;;;5073040;28;20599;-53
2021/10/08 01:28:48;;;;;;;0.60;0.60;;;;;;;;;;5086062;28;20395;-54
2021/10/08 01:31:14;;;;;;;1.33;0.80;;;;;;;;;;5086354;28;20522;-53
2021/10/08 01:33:40;;;;;;;0.73;0.70;;;;;;;;;;5066344;28;20084;-53
2021/10/08 01:36:06;;;;;;;1.17;0.90;;;;;;;;;;5079508;28;20450;-53
2021/10/08 01:38:32;;;;;;;0.60;0.60;;;;;;;;;;5086696;28;20082;-54
2021/10/08 01:40:58;;;;;;;1.13;1.00;;;;;;;;;;5086883;28;20028;-52
2021/10/08 01:43:24;;;;;;;0.73;0.73;;;;;;;;;;5087102;28;20036;-51
2021/10/08 01:45:50;;;;;;;1.13;0.73;;;;;;;;;;5085487;28;20024;-52
2021/10/08 01:48:16;;;;;;;1.02;0.82;;;;;;;;;;5085729;28;20089;-54
2021/10/08 01:50:42;;;;;;;0.70;0.70;;;;;;;;;;5086043;28;20024;-52
2021/10/08 01:53:09;;;;;;;0.73;0.73;;;;;;;;;;5086510;28;20032;-53
2021/10/08 01:55:35;;;;;;;2.60;0.70;;;;;;;;;;5086517;28;20050;-52
2021/10/08 01:58:01;;;;;;;1.20;1.00;;;;;;;;;;5085111;28;20025;-51
2021/10/08 02:00:27;;;;;;;1.00;0.80;;;;;;;;;;5085522;28;20522;-52
2021/10/08 02:02:53;;;;;;;0.82;0.82;;;;;;;;;;5085764;28;20442;-52
2021/10/08 02:05:20;;;;;;;1.02;0.70;;;;;;;;;;5086441;28;20546;-52
2021/10/08 02:07:47;;;;;;;0.90;0.80;;;;;;;;;;5083572;28;20111;-52
2021/10/08 02:10:13;;;;;;;1.63;0.90;;;;;;;;;;5072844;28;20031;-52
2021/10/08 02:12:39;;;;;;;1.00;0.88;;;;;;;;;;5066211;28;20028;-52
2021/10/08 02:15:06;;;;;;;1.25;0.90;;;;;;;;;;5065944;28;20503;-51
2021/10/08 02:17:32;;;;;;;1.10;1.00;;;;;;;;;;5065974;28;20024;-53
2021/10/08 02:19:58;;;;;;;1.17;0.98;;;;;;;;;;5073262;28;20079;-53
2021/10/08 02:22:24;;;;;;;1.13;0.88;;;;;;;;;;5086461;28;20070;-52
2021/10/08 02:24:50;;;;;;;1.15;0.80;;;;;;;;;;5085961;28;20027;-53
2021/10/08 02:27:16;;;;;;;1.30;0.80;;;;;;;;;;5085642;28;20052;-49
2021/10/08 02:29:42;;;;;;;0.90;0.70;;;;;;;;;;5084839;28;20111;-52
2021/10/08 02:32:08;;;;;;;0.88;0.88;;;;;;;;;;5086228;28;20020;-52
2021/10/08 02:34:35;;;;;;;0.90;0.80;;;;;;;;;;5085117;28;20016;-52
2021/10/08 02:37:01;;;;;;;0.82;0.82;;;;;;;;;;5086822;28;20028;-53
2021/10/08 02:39:27;;;;;;;0.75;0.75;;;;;;;;;;5089224;28;20020;-53
2021/10/08 02:41:53;;;;;;;0.90;0.90;;;;;;;;;;5089444;28;20510;-54
2021/10/08 02:44:19;;;;;;;1.48;0.90;;;;;;;;;;5089654;28;20111;-53
2021/10/08 02:46:45;;;;;;;1.75;1.05;;;;;;;;;;5088213;28;20036;-53
2021/10/08 02:49:11;;;;;;;0.90;0.85;;;;;;;;;;5088514;28;20031;-54
2021/10/08 02:51:37;;;;;;;0.80;0.80;;;;;;;;;;5089504;28;20475;-53
2021/10/08 02:54:03;;;;;;;0.98;0.80;;;;;;;;;;5089322;28;20024;-52
2021/10/08 02:56:30;;;;;;;0.95;0.90;;;;;;;;;;5089419;28;20031;-55
2021/10/08 02:58:56;;;;;;;0.95;0.85;;;;;;;;;;5089196;28;20024;-53
2021/10/08 03:01:22;;;;;;;1.40;0.90;;;;;;;;;;5088361;28;20066;-54
2021/10/08 03:03:49;;;;;;;1.27;1.00;;;;;;;;;;5089039;28;20028;-52
2021/10/08 03:06:15;;;;;;;3.00;1.30;;;;;;;;;;5088919;28;20028;-53
2021/10/08 03:08:41;;;;;;;1.17;1.02;;;;;;;;;;5089103;28;20050;-50
2021/10/08 03:11:07;;;;;;;1.15;0.90;;;;;;;;;;5087983;28;20028;-52
2021/10/08 03:13:33;;;;;;;2.28;1.10;;;;;;;;;;5088625;28;20032;-53
2021/10/08 03:15:59;;;;;;;1.80;1.10;;;;;;;;;;5088980;28;20154;-53
2021/10/08 03:18:26;;;;;;;0.85;0.85;;;;;;;;;;5089523;28;20410;-51
2021/10/08 03:20:52;;;;;;;1.60;1.13;;;;;;;;;;5087661;28;20038;-53
2021/10/08 03:23:18;;;;;;;1.23;1.13;;;;;;;;;;5088925;28;20043;-52
2021/10/08 03:25:44;;;;;;;0.85;0.85;;;;;;;;;;5087812;28;20107;-50
2021/10/08 03:28:10;;;;;;;1.30;1.15;;;;;;;;;;5081420;28;20024;-53
2021/10/08 03:30:36;;;;;;;1.02;0.90;;;;;;;;;;5080104;28;20529;-52
2021/10/08 03:33:02;;;;;;;1.80;1.00;;;;;;;;;;5088376;28;20020;-54
2021/10/08 03:35:28;;;;;;;1.25;1.10;;;;;;;;;;5089377;28;20120;-54
2021/10/08 03:38:14;;;;;;;1.08;1.02;;;;;;;;;;5083710;28;20833;-53
2021/10/08 03:40:42;;;;;;;1.60;1.23;;;;;;;;;;5080446;28;20032;-52
2021/10/08 03:43:11;;;;;;;1.83;1.42;;;;;;;;;;5088630;28;20527;-53
2021/10/08 03:45:49;;;;;;;1.42;1.10;;;;;;;;;;5088593;28;20020;-54
2021/10/08 03:50:50;;;;;;;1.13;1.02;;;;;;;;;;5087203;28;20036;-53
2021/10/08 03:53:16;;;;;;;1.85;1.13;;;;;;;;;;5088251;28;20028;-51
2021/10/08 03:55:42;;;;;;;1.30;1.20;;;;;;;;;;5088178;28;20030;-53
2021/10/08 03:58:08;;;;;;;1.30;1.20;;;;;;;;;;5088225;28;20063;-51
2021/10/08 04:00:34;;;;;;;1.23;1.13;;;;;;;;;;5086883;28;20036;-52
2021/10/08 04:03:01;;;;;;;1.10;1.00;;;;;;;;;;5087466;28;20421;-52
2021/10/08 04:05:27;;;;;;;1.45;1.35;;;;;;;;;;5088858;28;20107;-53
2021/10/08 04:07:53;;;;;;;1.42;1.27;;;;;;;;;;5087625;28;20028;-53
2021/10/08 04:10:19;;;;;;;1.20;1.10;;;;;;;;;;5086803;28;20036;-51
2021/10/08 04:12:46;;;;;;;1.52;1.15;;;;;;;;;;5087585;28;20020;-51
2021/10/08 04:15:12;;;;;;;3.00;1.50;;;;;;;;;;5088000;28;20526;-53
2021/10/08 04:17:39;;;;;;;1.10;1.00;;;;;;;;;;5087511;28;20020;-53
2021/10/08 04:20:05;;;;;;;1.52;1.42;;;;;;;;;;5086375;28;20040;-53
2021/10/08 04:22:32;;;;;;;1.20;1.10;;;;;;;;;;5087641;28;20020;-52
2021/10/08 04:24:58;;;;;;;1.23;1.13;;;;;;;;;;5088035;28;20073;-53
2021/10/08 04:27:24;;;;;;;3.95;1.50;;;;;;;;;;5087582;28;20024;-52
2021/10/08 04:29:50;;;;;;;1.77;1.05;;;;;;;;;;5086118;28;20616;-55
2021/10/08 04:32:17;;;;;;;1.95;1.30;;;;;;;;;;5085756;28;20058;-54
2021/10/08 04:34:43;;;;;;;2.05;1.10;;;;;;;;;;5085369;28;20448;-52
2021/10/08 04:37:09;;;;;;;1.48;1.30;;;;;;;;;;5077881;28;20031;-52
2021/10/08 04:39:35;;;;;;;1.75;1.13;;;;;;;;;;5085882;28;20024;-53
2021/10/08 04:42:01;;;;;;;1.20;1.10;;;;;;;;;;5085722;28;20032;-54
2021/10/08 04:44:32;;;;;;;1.42;1.27;;;;;;;;;;5086513;28;20032;-50
2021/10/08 04:46:58;;;;;;;1.55;1.10;;;;;;;;;;5083120;28;20489;-55
2021/10/08 04:49:24;;;;;;;1.50;1.23;;;;;;;;;;5087389;28;20028;-53
2021/10/08 04:51:51;;;;;;;1.40;1.30;;;;;;;;;;5084428;28;20027;-52
2021/10/08 04:54:17;;;;;;;1.42;1.23;;;;;;;;;;5073384;28;20028;-54
2021/10/08 04:56:43;;;;;;;1.80;1.20;;;;;;;;;;5066586;28;20044;-53
2021/10/08 04:59:09;;;;;;;1.17;1.08;;;;;;;;;;5065997;28;20028;-50
2021/10/08 05:01:35;;;;;;;1.23;1.13;;;;;;;;;;5076116;28;20550;-50
2021/10/08 05:04:01;;;;;;;1.42;1.33;;;;;;;;;;5085796;28;20098;-54
2021/10/08 05:06:27;;;;;;;1.80;1.70;;;;;;;;;;5083920;28;20020;-51
2021/10/08 05:08:53;;;;;;;1.50;1.15;;;;;;;;;;5081274;28;20024;-53
2021/10/08 05:11:19;;;;;;;1.63;1.30;;;;;;;;;;5085960;28;20032;-52
2021/10/08 05:13:45;;;;;;;1.25;1.15;;;;;;;;;;5082893;28;20028;-52
2021/10/08 05:16:11;;;;;;;1.35;1.17;;;;;;;;;;5085544;28;20504;-53
2021/10/08 05:18:38;;;;;;;1.27;1.17;;;;;;;;;;5084551;28;20032;-54
2021/10/08 05:21:04;;;;;;;1.25;1.00;;;;;;;;;;5080917;28;20045;-54
2021/10/08 05:23:30;;;;;;;1.55;1.45;;;;;;;;;;5077527;28;20059;-55
2021/10/08 05:25:56;;;;;;;1.40;1.30;;;;;;;;;;5086815;28;20039;-54
2021/10/08 05:28:22;;;;;;;1.92;1.73;;;;;;;;;;5084688;28;20023;-53
2021/10/08 05:30:48;;;;;;;1.73;1.23;;;;;;;;;;5080063;28;20036;-54
2021/10/08 05:33:14;;;;;;;1.50;1.40;;;;;;;;;;5084720;28;20020;-54
2021/10/08 05:35:40;;;;;;;1.83;1.30;;;;;;;;;;5075064;28;20509;-54
2021/10/08 05:38:06;;;;;;;1.80;1.33;;;;;;;;;;5084680;28;20024;-53
2021/10/08 05:40:32;;;;;;;1.35;1.25;;;;;;;;;;5085820;28;20502;-54
2021/10/08 05:43:00;;;;;;;1.20;1.10;;;;;;;;;;5085387;28;20032;-54
2021/10/08 05:45:26;;;;;;;1.63;1.38;;;;;;;;;;5085618;28;20145;-53
2021/10/08 05:47:52;;;;;;;1.33;1.23;;;;;;;;;;5086159;28;20519;-53
2021/10/08 05:50:18;;;;;;;1.50;1.40;;;;;;;;;;5080862;28;20031;-53
2021/10/08 05:52:44;;;;;;;1.30;1.20;;;;;;;;;;5086887;28;20039;-54
2021/10/08 05:55:10;;;;;;;1.25;1.15;;;;;;;;;;5088900;28;20471;-52
2021/10/08 05:57:36;;;;;;;1.95;1.55;;;;;;;;;;5095879;28;20699;-54
2021/10/08 06:00:03;;;;;;;2.00;1.40;;;;;;;;;;5080731;28;20028;-54
2021/10/08 06:02:29;;;;;;;2.17;1.77;;;;;;;;;;5082302;28;20043;-54
2021/10/08 06:04:55;;;;;;;2.92;2.40;;;;;;;;;;5072782;28;20021;-53
2021/10/08 06:07:21;;;;;;;2.33;2.00;;;;;;;;;;5064094;28;20112;-54
2021/10/08 06:09:47;;;;;;;1.92;1.60;;;;;;;;;;5065572;28;20398;-53
2021/10/08 06:12:14;;;;;;;2.15;1.60;;;;;;;;;;5077532;28;20028;-54
2021/10/08 06:14:41;;;;;;;1.60;1.45;;;;;;;;;;5089053;28;20056;-54
2021/10/08 06:17:08;;;;;;;1.70;1.60;;;;;;;;;;5086561;28;20016;-53
2021/10/08 06:19:34;;;;;;;1.40;1.30;;;;;;;;;;5086987;28;20506;-54
2021/10/08 06:22:02;;;;;;;1.95;1.60;;;;;;;;;;5086596;28;20545;-53
2021/10/08 06:24:28;;;;;;;1.60;1.50;;;;;;;;;;5089334;28;20032;-54
2021/10/08 06:26:55;;;;;;;1.70;1.55;;;;;;;;;;5077185;28;20093;-51
2021/10/08 06:29:21;;;;;;;1.60;1.50;;;;;;;;;;5069389;28;20089;-53
2021/10/08 06:31:47;;;;;;;1.60;1.50;;;;;;;;;;5082137;28;20432;-54
2021/10/08 06:34:14;;;;;;;1.83;1.42;;;;;;;;;;5089273;28;20024;-55
2021/10/08 06:36:41;;;;;;;2.20;1.95;;;;;;;;;;5074762;28;20029;-52
2021/10/08 06:39:07;;;;;;;2.40;1.42;;;;;;;;;;5080305;28;20063;-52
2021/10/08 06:41:33;;;;;;;2.67;1.98;;;;;;;;;;5088776;28;20027;-49
2021/10/08 06:43:59;;;;;;;2.40;1.95;;;;;;;;;;5094264;28;20051;-49
2021/10/08 06:46:25;;;;;;;1.92;1.73;;;;;;;;;;5094651;28;20020;-49
2021/10/08 06:48:51;;;;;;;3.10;2.00;;;;;;;;;;5085656;28;20021;-48
2021/10/08 06:51:19;;;;;;;3.85;2.38;;;;;;;;;;5075898;28;20098;-50
2021/10/08 06:53:46;;;;;;;1.65;1.50;;;;;;;;;;5075769;28;20538;-50
2021/10/08 06:56:13;;;;;;;2.47;1.83;;;;;;;;;;5089403;28;20103;-48
2021/10/08 06:58:39;;;;;;;1.80;1.40;;;;;;;;;;5088186;28;20028;-49
2021/10/08 07:01:06;;;;;;;1.90;1.50;;;;;;;;;;5082413;28;20028;-50
2021/10/08 07:03:32;;;;;;;2.95;2.22;;;;;;;;;;5087482;28;20035;-50
2021/10/08 07:05:58;;;;;;;2.10;1.90;;;;;;;;;;5086924;28;20121;-49
2021/10/08 07:08:24;;;;;;;1.90;1.80;;;;;;;;;;5086300;28;20041;-52
2021/10/08 07:10:50;;;;;;;2.25;1.90;;;;;;;;;;5087244;28;20035;-52
2021/10/08 07:13:17;;;;;;;1.92;1.60;;;;;;;;;;5086092;28;20402;-51
2021/10/08 07:15:43;;;;;;;2.03;1.80;;;;;;;;;;5088963;28;20012;-50
2021/10/08 07:18:14;;;;;;;2.22;1.75;;;;;;;;;;5087721;28;20039;-51
2021/10/08 07:20:40;;;;;;;2.05;1.52;;;;;;;;;;5087267;28;20024;-51
2021/10/08 07:23:06;;;;;;;2.00;1.80;;;;;;;;;;5088510;28;20430;-50
2021/10/08 07:25:32;;;;;;;1.58;1.27;;;;;;;;;;5075356;28;20535;-52
2021/10/08 07:27:59;;;;;;;2.05;1.45;;;;;;;;;;5085895;28;20522;-51
2021/10/08 08:01:23;;;;;;;2.42;2.00;;;;;;;;;;5112178;28;20375;-52
2021/10/08 08:03:49;;;;;;;2.53;2.03;;;;;;;;;;5112826;28;20035;-48
2021/10/08 08:06:15;;;;;;;1.92;1.73;;;;;;;;;;5113036;28;20020;-52
2021/10/08 08:08:41;;;;;;;2.10;1.90;;;;;;;;;;5111955;28;20051;-50
2021/10/08 08:11:07;;;;;;;2.38;1.98;;;;;;;;;;5112432;28;20103;-50
2021/10/08 08:13:33;;;;;;;1.70;1.60;;;;;;;;;;5111866;28;20111;-51
2021/10/08 08:15:59;;;;;;;1.98;1.60;;;;;;;;;;5112121;28;20019;-49
2021/10/08 08:18:25;;;;;;;2.30;2.10;;;;;;;;;;5111906;28;20027;-51
2021/10/08 08:20:51;;;;;;;2.38;1.98;;;;;;;;;;5111759;28;20478;-51
2021/10/08 08:23:18;;;;;;;2.33;1.92;;;;;;;;;;5111531;28;20511;-52
2021/10/08 08:25:44;;;;;;;2.05;1.80;;;;;;;;;;5111537;28;20032;-52
2021/10/08 08:28:10;;;;;;;2.10;1.90;;;;;;;;;;5111993;28;20024;-51
2021/10/08 08:30:39;;;;;;;2.13;1.58;;;;;;;;;;5111485;28;20039;-51
2021/10/08 08:33:05;;;;;;;2.28;1.83;;;;;;;;;;5111618;28;20024;-50
2021/10/08 08:35:31;;;;;;;1.83;1.40;;;;;;;;;;5110866;28;20031;-49
2021/10/08 08:37:57;;;;;;;1.88;1.67;;;;;;;;;;5111472;28;20123;-50
2021/10/08 08:40:25;;;;;;;2.20;1.92;;;;;;;;;;5111614;28;20402;-48
2021/10/08 08:42:55;;;;;;;2.13;1.60;;;;;;;;;;5111492;28;20127;-48
2021/10/08 08:45:21;;;;;;;1.50;1.40;;;;;;;;;;5111519;28;20121;-48
2021/10/08 08:47:57;;;;;;;1.52;1.42;;;;;;;;;;5111423;28;20031;-48
2021/10/08 08:50:24;;;;;;;1.88;1.40;;;;;;;;;;5093264;28;20031;-50
2021/10/08 08:52:50;;;;;;;1.60;1.50;;;;;;;;;;5111232;28;20031;-50
2021/10/08 08:55:16;;;;;;;1.50;1.40;;;;;;;;;;5111261;28;20022;-52
2021/10/08 08:57:43;;;;;;;1.50;1.40;;;;;;;;;;5111342;28;20031;-48
2021/10/08 09:00:16;;;;;;;1.55;1.45;;;;;;;;;;5111426;28;20024;-50
2021/10/08 09:02:42;;;;;;;2.03;1.83;;;;;;;;;;5111395;28;20043;-50
2021/10/08 09:05:18;;;;;;;3.42;2.03;;;;;;;;;;5111070;28;20027;-51
2021/10/08 09:07:45;;;;;;;2.33;1.80;;;;;;;;;;5111349;28;20034;-51
2021/10/08 09:10:14;;;;;;;2.00;1.80;;;;;;;;;;5111259;28;20019;-51
2021/10/08 09:12:40;;;;;;;1.70;1.60;;;;;;;;;;5111332;28;20447;-50
2021/10/08 09:15:07;;;;;;;1.55;1.40;;;;;;;;;;5110796;28;20022;-50
2021/10/08 09:17:33;;;;;;;1.70;1.42;;;;;;;;;;5110967;28;20027;-52
2021/10/08 09:20:01;;;;;;;1.77;1.67;;;;;;;;;;5111003;28;20069;-49
2021/10/08 09:22:29;;;;;;;1.65;1.55;;;;;;;;;;5110924;28;20028;-50
2021/10/08 09:25:07;;;;;;;1.98;1.77;;;;;;;;;;5111014;28;20030;-49
2021/10/08 09:27:36;;;;;;;1.88;1.70;;;;;;;;;;5110903;28;20039;-52
2021/10/08 09:30:03;;;;;;;2.80;2.20;;;;;;;;;;5110527;28;20502;-48
2021/10/08 09:32:29;;;;;;;1.67;1.58;;;;;;;;;;5110714;28;20034;-48
2021/10/08 09:35:06;;;;;;;2.50;1.80;;;;;;;;;;5110672;28;20019;-50
2021/10/08 09:37:32;;;;;;;2.20;1.80;;;;;;;;;;5110542;28;20015;-51
2021/10/08 09:39:58;;;;;;;2.10;1.90;;;;;;;;;;5110711;28;20055;-50
2021/10/08 09:42:32;;;;;;;2.17;1.80;;;;;;;;;;5110637;28;20444;-51
2021/10/08 09:44:58;;;;;;;2.15;1.60;;;;;;;;;;5110724;28;20062;-51
2021/10/08 09:47:28;;;;;;;1.90;1.70;;;;;;;;;;5114504;28;20110;-52
2021/10/08 09:50:06;;;;;;;2.08;1.70;;;;;;;;;;5114768;28;20074;-49
2021/10/08 09:52:32;;;;;;;2.03;1.70;;;;;;;;;;5114907;28;20054;-51
2021/10/08 09:54:59;;;;;;;2.30;1.70;;;;;;;;;;5114692;28;20020;-50
2021/10/08 09:57:26;;;;;;;2.05;1.70;;;;;;;;;;5114640;28;20106;-49
2021/10/08 09:59:53;;;;;;;2.85;2.33;;;;;;;;;;5114765;28;20033;-49
2021/10/08 10:02:19;;;;;;;2.42;2.00;;;;;;;;;;5101569;28;20051;-48
2021/10/08 10:04:47;;;;;;;2.00;1.80;;;;;;;;;;5092956;28;20051;-48
2021/10/08 10:07:17;;;;;;;2.30;2.10;;;;;;;;;;5104033;28;20110;-51
2021/10/08 10:09:44;;;;;;;3.17;2.25;;;;;;;;;;5112765;28;20023;-49
2021/10/08 10:12:10;;;;;;;2.05;1.77;;;;;;;;;;5112725;28;20026;-51
2021/10/08 10:14:39;;;;;;;2.58;1.70;;;;;;;;;;5112811;28;20441;-48
2021/10/08 10:17:05;;;;;;;2.53;1.90;;;;;;;;;;5112771;28;20456;-48
2021/10/08 10:19:32;;;;;;;1.98;1.65;;;;;;;;;;5112382;28;20446;-48
2021/10/08 10:21:59;;;;;;;1.65;1.55;;;;;;;;;;5112349;28;20024;-48
2021/10/08 10:24:25;;;;;;;2.03;1.65;;;;;;;;;;5112533;28;20070;-52
2021/10/08 10:26:53;;;;;;;2.30;1.88;;;;;;;;;;5113113;28;20098;-50
2021/10/08 10:29:20;;;;;;;2.30;1.83;;;;;;;;;;5112584;28;20032;-48
2021/10/08 10:31:47;;;;;;;2.25;2.05;;;;;;;;;;5112346;28;20097;-52
2021/10/08 10:34:14;;;;;;;3.08;2.38;;;;;;;;;;5112347;28;20026;-49
2021/10/08 10:36:41;;;;;;;2.70;2.05;;;;;;;;;;5112145;28;20282;-49
2021/10/08 10:39:13;;;;;;;3.10;2.40;;;;;;;;;;5112150;28;20115;-48
2021/10/08 10:41:40;;;;;;;2.67;2.03;;;;;;;;;;5112227;28;20030;-48
2021/10/08 10:44:18;;;;;;;3.15;2.50;;;;;;;;;;5112040;28;20019;-50
2021/10/08 10:51:57;;;;;;;3.67;2.35;;;;;;;;;;5111936;28;20375;-52
2021/10/08 10:54:35;;;;;;;2.25;1.92;;;;;;;;;;5112512;28;20028;-48
2021/10/08 10:57:02;;;;;;;2.58;2.17;;;;;;;;;;5111369;28;20059;-47
2021/10/08 10:59:29;;;;;;;2.35;1.73;;;;;;;;;;5111647;28;20479;-49
2021/10/08 11:02:12;;;;;;;1.50;1.40;;;;;;;;;;5112679;28;20105;-48
2021/10/08 11:04:39;;;;;;;2.40;2.00;;;;;;;;;;5111809;28;20149;-48
2021/10/08 11:07:10;;;;;;;2.03;1.60;;;;;;;;;;5111636;28;20099;-48
2021/10/08 11:09:37;;;;;;;2.40;2.20;;;;;;;;;;5111479;28;20078;-48
2021/10/08 11:12:21;;;;;;;2.40;1.98;;;;;;;;;;5111542;28;20016;-48
2021/10/08 11:14:47;;;;;;;;;;;;;;;;;;5111947;28;20028;-48
2021/10/08 11:17:32;;;;;;;2.40;2.20;;;;;;;;;;5111525;28;19977;-47
2021/10/08 11:19:58;;;;;;;2.25;2.03;;;;;;;;;;5111363;28;20408;-48
2021/10/08 11:22:43;;;;;;;4.05;1.90;;;;;;;;;;5111928;28;20019;-49
2021/10/08 11:25:12;;;;;;;2.20;1.80;;;;;;;;;;5111428;28;20413;-48
2021/10/08 11:27:38;;;;;;;1.80;1.58;;;;;;;;;;5111314;28;20487;-49
2021/10/08 11:30:04;;;;;;;2.05;1.50;;;;;;;;;;5111117;28;20036;-49
2021/10/08 11:32:34;;;;;;;1.88;1.45;;;;;;;;;;5111185;28;20379;-49
2021/10/08 11:35:01;;;;;;;1.30;1.20;;;;;;;;;;5111025;28;20027;-48
2021/10/08 11:37:31;;;;;;;1.55;1.38;;;;;;;;;;5111749;28;20490;-49
2021/10/08 11:39:57;;;;;;;1.48;1.30;;;;;;;;;;5111742;28;20031;-51
2021/10/08 11:42:25;;;;;;;1.98;1.50;;;;;;;;;;5111464;28;20038;-51
2021/10/08 11:52:55;;;;;;;1.65;1.40;;;;;;;;;;5111100;28;20030;-51
2021/10/08 11:55:23;;;;;;;1.55;1.40;;;;;;;;;;5110789;28;20028;-49
2021/10/08 11:57:56;;;;;;;1.35;1.10;;;;;;;;;;5110639;28;20103;-49
2021/10/08 12:00:25;;;;;;;1.20;1.10;;;;;;;;;;5095075;28;20032;-49
2021/10/08 12:02:58;;;;;;;1.67;1.40;;;;;;;;;;5090690;28;20250;-48
2021/10/08 12:05:24;;;;;;;1.33;1.23;;;;;;;;;;5105861;28;20024;-49
2021/10/08 12:08:03;;;;;;;1.73;1.40;;;;;;;;;;5110508;28;20051;-49
2021/10/08 12:10:29;;;;;;;1.67;1.17;;;;;;;;;;5109425;28;20050;-50
2021/10/08 12:12:57;;;;;;;1.45;1.08;;;;;;;;;;5110658;28;20016;-48
2021/10/08 12:15:27;;;;;;;1.40;1.30;;;;;;;;;;5110446;28;20375;-48
2021/10/08 12:17:54;;;;;;;1.30;1.20;;;;;;;;;;5110395;28;20448;-48
2021/10/08 12:20:23;;;;;;;3.55;1.65;;;;;;;;;;5110361;28;20035;-48
2021/10/08 12:22:49;;;;;;;1.60;1.50;;;;;;;;;;5110739;28;20130;-48
2021/10/08 12:25:16;;;;;;;1.42;1.33;;;;;;;;;;5110239;28;20055;-48
2021/10/08 12:27:43;;;;;;;1.55;1.40;;;;;;;;;;5110184;28;20513;-48
2021/10/08 12:30:10;;;;;;;1.23;1.10;;;;;;;;;;5109874;28;20608;-49
2021/10/08 12:32:36;;;;;;;1.67;1.20;;;;;;;;;;5110687;28;20028;-48
2021/10/08 12:35:11;;;;;;;2.28;1.30;;;;;;;;;;5110519;28;20062;-49
2021/10/08 12:37:37;;;;;;;1.30;1.20;;;;;;;;;;5110611;28;20016;-49
2021/10/08 12:40:11;;;;;;;1.13;1.02;;;;;;;;;;5110684;28;20038;-49
2021/10/08 12:42:43;;;;;;;1.73;1.48;;;;;;;;;;5110458;28;20102;-50
2021/10/08 12:45:22;;;;;;;2.42;1.55;;;;;;;;;;5109924;28;20353;-48
2021/10/08 12:47:49;;;;;;;1.40;1.30;;;;;;;;;;5109723;28;20016;-48
2021/10/08 12:50:24;;;;;;;1.77;1.30;;;;;;;;;;5109610;28;20086;-52
2021/10/08 12:52:50;;;;;;;;;;;;;;;;;;5110253;28;20068;-50
2021/10/08 12:55:36;;;;;;;2.08;1.60;;;;;;;;;;5109697;28;20324;-49
2021/10/08 12:58:19;;;;;;;1.40;1.30;;;;;;;;;;5109660;28;20053;-51
2021/10/08 13:00:45;;;;;;;1.80;1.50;;;;;;;;;;5109630;28;20026;-50
2021/10/08 13:03:35;;;;;;;1.67;1.58;;;;;;;;;;5109576;28;20476;-50
2021/10/08 13:06:05;;;;;;;1.70;1.48;;;;;;;;;;5109579;28;20078;-49
2021/10/08 13:08:34;;;;;;;1.50;1.30;;;;;;;;;;5109489;28;20038;-48
2021/10/08 13:11:03;;;;;;;1.33;1.02;;;;;;;;;;5109391;28;20028;-49
2021/10/08 13:13:30;;;;;;;1.55;1.17;;;;;;;;;;5109462;28;20038;-50
2021/10/08 13:15:57;;;;;;;1.90;1.30;;;;;;;;;;5109370;28;20020;-49
2021/10/08 13:18:23;;;;;;;1.58;1.20;;;;;;;;;;5109325;28;20502;-51
2021/10/08 13:20:51;;;;;;;2.35;1.45;;;;;;;;;;5108912;28;20103;-49
2021/10/08 13:23:17;;;;;;;1.75;1.52;;;;;;;;;;5109127;28;20027;-52
2021/10/08 13:25:47;;;;;;;1.95;1.60;;;;;;;;;;5109258;28;20109;-49
2021/10/08 13:28:13;;;;;;;1.30;1.20;;;;;;;;;;5108842;28;20035;-49
2021/10/08 13:30:40;;;;;;;1.33;1.20;;;;;;;;;;5109638;28;20070;-50
2021/10/08 13:33:08;;;;;;;1.20;1.10;;;;;;;;;;5108885;28;20282;-48
2021/10/08 13:35:34;;;;;;;1.15;1.05;;;;;;;;;;5109074;28;20032;-48
2021/10/08 13:38:00;;;;;;;2.15;0.82;;;;;;;;;;5109029;28;20070;-48
2021/10/08 13:40:26;;;;;;;2.13;1.27;;;;;;;;;;5108962;28;20042;-52
2021/10/08 13:42:52;;;;;;;1.23;1.10;;;;;;;;;;5108936;28;20493;-49
2021/10/08 13:45:19;;;;;;;0.90;0.90;;;;;;;;;;5109206;28;20094;-50
2021/10/08 13:47:46;;;;;;;1.23;1.02;;;;;;;;;;5108964;28;20371;-49
2021/10/08 13:50:11;;;;;;;0.88;0.88;;;;;;;;;;5108900;28;20016;-53
2021/10/08 13:52:38;;;;;;;2.33;1.58;;;;;;;;;;5109452;28;20080;-49
2021/10/08 13:55:04;;;;;;;1.30;1.20;;;;;;;;;;5108943;28;20456;-52
2021/10/08 13:57:30;;;;;;;1.73;1.30;;;;;;;;;;5108979;28;20405;-51
2021/10/08 13:59:56;;;;;;;1.13;1.02;;;;;;;;;;5108168;28;20406;-49
2021/10/08 14:03:17;;;;;;;1.48;1.20;;;;;;;;;;5109325;28;20028;-50
2021/10/08 14:05:23;;;;;;;1.40;1.30;;;;;;;;;;5079955;28;20028;-48
2021/10/08 14:10:21;;;;;;;1.02;0.93;;;;;;;;;;5088141;28;20055;-48
2021/10/08 14:12:49;;;;;;;1.50;1.30;;;;;;;;;;5088436;28;20028;-48
2021/10/08 14:15:15;;;;;;;1.52;1.00;;;;;;;;;;5088783;28;20020;-48
2021/10/08 14:17:41;;;;;;;1.25;1.10;;;;;;;;;;5088421;28;20031;-48
2021/10/08 14:20:07;;;;;;;0.88;0.85;;;;;;;;;;5088869;28;20032;-48
2021/10/08 14:22:34;;;;;;;1.65;1.17;;;;;;;;;;5088939;28;20502;-49
2021/10/08 14:25:01;;;;;;;2.25;1.27;;;;;;;;;;5088260;28;20058;-48
2021/10/08 14:27:30;;;;;;;1.10;1.00;;;;;;;;;;5088244;28;20025;-49
2021/10/08 14:29:56;;;;;;;2.08;1.10;;;;;;;;;;5087987;28;20115;-48
2021/10/08 14:32:22;;;;;;;1.10;1.00;;;;;;;;;;5088614;28;20121;-49
2021/10/08 14:34:48;;;;;;;0.98;0.98;;;;;;;;;;5091976;28;20138;-48
2021/10/08 14:37:14;;;;;;;1.00;0.90;;;;;;;;;;5091986;28;20028;-49
2021/10/08 14:39:40;;;;;;;1.10;1.00;;;;;;;;;;5091810;28;20054;-49
2021/10/08 14:42:06;;;;;;;1.10;1.00;;;;;;;;;;5092530;28;20024;-50
2021/10/08 14:44:33;;;;;;;1.10;1.00;;;;;;;;;;5091691;28;20046;-52
2021/10/08 14:46:59;;;;;;;1.08;0.98;;;;;;;;;;5091824;28;20048;-48
2021/10/08 14:49:25;;;;;;;1.15;1.05;;;;;;;;;;5091671;28;20395;-51
2021/10/08 14:51:53;;;;;;;1.05;0.95;;;;;;;;;;5091669;28;20103;-50
2021/10/08 14:59:39;;;;;;;1.80;1.05;;;;;;;;;;5092182;28;20069;-48
2021/10/08 15:02:05;;;;;;;3.60;1.10;;;;;;;;;;5091312;28;20039;-48
2021/10/08 15:04:31;;;;;;;1.42;0.98;;;;;;;;;;5091558;28;20103;-52
2021/10/08 15:06:58;;;;;;;0.85;0.85;;;;;;;;;;5091765;28;20028;-53
2021/10/08 15:09:24;;;;;;;1.13;1.00;;;;;;;;;;5091137;28;20058;-48
2021/10/08 15:11:50;;;;;;;1.30;1.00;;;;;;;;;;5091301;28;20055;-49
2021/10/08 15:14:16;;;;;;;1.13;1.02;;;;;;;;;;5091213;28;20027;-48
2021/10/08 15:16:42;;;;;;;1.10;0.93;;;;;;;;;;5091268;28;20024;-49
2021/10/08 15:19:08;;;;;;;0.90;0.90;;;;;;;;;;5091734;28;20021;-49
2021/10/08 15:21:34;;;;;;;0.98;0.90;;;;;;;;;;5091097;28;20031;-49
2021/10/08 15:24:00;;;;;;;1.48;1.27;;;;;;;;;;5090916;28;20475;-48
2021/10/08 15:26:26;;;;;;;0.70;0.70;;;;;;;;;;5090959;28;20082;-49
2021/10/08 15:28:52;;;;;;;1.40;1.00;;;;;;;;;;5090900;28;20036;-52
2021/10/08 15:31:18;;;;;;;0.80;0.75;;;;;;;;;;5090844;28;20449;-49
2021/10/08 15:33:47;;;;;;;1.60;1.00;;;;;;;;;;5091283;28;20028;-51
2021/10/08 15:36:13;;;;;;;1.15;0.98;;;;;;;;;;5089771;28;20131;-48
2021/10/08 15:38:39;;;;;;;0.63;0.63;;;;;;;;;;5091391;28;20490;-51